sensor_id;sensor_type;location;lat;lon;timestamp;pressure;altitude;pressure_sealevel;temperature;humidity
50434;BME280;36361;38.954;-9.002;2023-03-18T00:01:01;100868.94;;;13.50;100.00
50434;BME280;36361;38.954;-9.002;2023-03-18T00:02:03;100871.69;;;13.50;100.00
50434;BME280;36361;38.954;-9.002;2023-03-18T00:03:04;100881.19;;;13.47;100.00
50434;BME280;36361;38.954;-9.002;2023-03-18T00:04:06;100869.69;;;13.57;100.00
50434;BME280;36361;38.954;-9.002;2023-03-18T00:05:07;100877.75;;;13.52;100.00
50434;BME280;36361;38.954;-9.002;2023-03-18T00:06:16;100871.56;;;13.45;100.00
50434;BME280;36361;38.954;-9.002;2023-03-18T00:07:18;100867.44;;;13.54;100.00
50434;BME280;36361;38.954;-9.002;2023-03-18T00:08:18;100870.06;;;13.60;100.00
50434;BME280;36361;38.954;-9.002;2023-03-18T00:09:19;100872.44;;;13.57;100.00
50434;BME280;36361;38.954;-9.002;2023-03-18T00:10:20;100871.69;;;13.50;100.00
50434;BME280;36361;38.954;-9.002;2023-03-18T00:11:21;100875.72;;;13.47;100.00
50434;BME280;36361;38.954;-9.002;2023-03-18T00:12:22;100880.34;;;13.47;100.00
50434;BME280;36361;38.954;-9.002;2023-03-18T00:13:24;100872.19;;;13.58;100.00
50434;BME280;36361;38.954;-9.002;2023-03-18T00:14:25;100868.03;;;13.56;100.00
50434;BME280;36361;38.954;-9.002;2023-03-18T00:15:26;100862.84;;;13.66;100.00
50434;BME280;36361;38.954;-9.002;2023-03-18T00:16:27;100874.34;;;13.56;100.00
50434;BME280;36361;38.954;-9.002;2023-03-18T00:17:27;100867.28;;;13.49;100.00
50434;BME280;36361;38.954;-9.002;2023-03-18T00:18:29;100861.41;;;13.63;100.00
50434;BME280;36361;38.954;-9.002;2023-03-18T00:19:31;100868.09;;;13.68;100.00
50434;BME280;36361;38.954;-9.002;2023-03-18T00:20:33;100862.38;;;13.69;100.00
50434;BME280;36361;38.954;-9.002;2023-03-18T00:21:39;100858.00;;;13.50;100.00
50434;BME280;36361;38.954;-9.002;2023-03-18T00:22:40;100857.50;;;13.41;100.00
50434;BME280;36361;38.954;-9.002;2023-03-18T00:23:41;100854.22;;;13.51;100.00
50434;BME280;36361;38.954;-9.002;2023-03-18T00:24:43;100859.94;;;13.31;100.00
50434;BME280;36361;38.954;-9.002;2023-03-18T00:25:46;100856.38;;;13.30;100.00
50434;BME280;36361;38.954;-9.002;2023-03-18T00:26:47;100850.81;;;13.19;100.00
50434;BME280;36361;38.954;-9.002;2023-03-18T00:27:49;100856.19;;;13.25;100.00
50434;BME280;36361;38.954;-9.002;2023-03-18T00:28:50;100858.50;;;13.28;100.00
50434;BME280;36361;38.954;-9.002;2023-03-18T00:29:51;100857.91;;;13.26;100.00
50434;BME280;36361;38.954;-9.002;2023-03-18T00:30:52;100853.91;;;13.41;100.00
50434;BME280;36361;38.954;-9.002;2023-03-18T00:31:53;100866.28;;;13.43;100.00
50434;BME280;36361;38.954;-9.002;2023-03-18T00:32:54;100860.28;;;13.34;100.00
50434;BME280;36361;38.954;-9.002;2023-03-18T00:33:55;100855.16;;;13.26;100.00
50434;BME280;36361;38.954;-9.002;2023-03-18T00:34:56;100858.91;;;13.07;100.00
50434;BME280;36361;38.954;-9.002;2023-03-18T00:35:57;100858.91;;;13.07;100.00
50434;BME280;36361;38.954;-9.002;2023-03-18T00:36:59;100857.09;;;13.01;100.00
50434;BME280;36361;38.954;-9.002;2023-03-18T00:37:59;100859.38;;;13.04;100.00
50434;BME280;36361;38.954;-9.002;2023-03-18T00:39:03;100858.84;;;13.14;100.00
50434;BME280;36361;38.954;-9.002;2023-03-18T00:40:09;100865.03;;;13.27;100.00
50434;BME280;36361;38.954;-9.002;2023-03-18T00:41:18;100858.63;;;13.33;100.00
50434;BME280;36361;38.954;-9.002;2023-03-18T00:42:18;100858.19;;;13.36;100.00
50434;BME280;36361;38.954;-9.002;2023-03-18T00:43:21;100859.38;;;13.41;100.00
50434;BME280;36361;38.954;-9.002;2023-03-18T00:44:23;100858.44;;;13.35;100.00
50434;BME280;36361;38.954;-9.002;2023-03-18T00:45:27;100857.44;;;13.29;100.00
50434;BME280;36361;38.954;-9.002;2023-03-18T00:46:32;100857.78;;;13.33;100.00
50434;BME280;36361;38.954;-9.002;2023-03-18T00:47:34;100856.66;;;13.22;100.00
50434;BME280;36361;38.954;-9.002;2023-03-18T00:48:36;100853.16;;;13.33;100.00
50434;BME280;36361;38.954;-9.002;2023-03-18T00:49:38;100861.53;;;13.38;100.00
50434;BME280;36361;38.954;-9.002;2023-03-18T00:50:38;100862.28;;;13.46;100.00
50434;BME280;36361;38.954;-9.002;2023-03-18T00:51:40;100853.22;;;13.63;100.00
50434;BME280;36361;38.954;-9.002;2023-03-18T00:52:48;100859.91;;;13.79;100.00
50434;BME280;36361;38.954;-9.002;2023-03-18T00:53:51;100859.31;;;13.77;100.00
50434;BME280;36361;38.954;-9.002;2023-03-18T00:54:52;100860.53;;;13.81;100.00
50434;BME280;36361;38.954;-9.002;2023-03-18T00:55:53;100859.47;;;13.82;100.00
50434;BME280;36361;38.954;-9.002;2023-03-18T00:56:55;100864.00;;;13.88;100.00
50434;BME280;36361;38.954;-9.002;2023-03-18T00:57:56;100859.75;;;13.92;100.00
50434;BME280;36361;38.954;-9.002;2023-03-18T00:58:57;100859.16;;;13.90;100.00
50434;BME280;36361;38.954;-9.002;2023-03-18T00:59:59;100850.03;;;13.78;100.00
50434;BME280;36361;38.954;-9.002;2023-03-18T01:01:00;100853.56;;;13.67;100.00
50434;BME280;36361;38.954;-9.002;2023-03-18T01:02:01;100853.09;;;13.70;100.00
50434;BME280;36361;38.954;-9.002;2023-03-18T01:03:03;100856.31;;;13.67;100.00
50434;BME280;36361;38.954;-9.002;2023-03-18T01:04:06;100849.03;;;13.61;100.00
50434;BME280;36361;38.954;-9.002;2023-03-18T01:05:07;100850.25;;;13.65;100.00
50434;BME280;36361;38.954;-9.002;2023-03-18T01:06:10;100851.16;;;13.59;100.00
50434;BME280;36361;38.954;-9.002;2023-03-18T01:07:11;100853.41;;;13.62;100.00
50434;BME280;36361;38.954;-9.002;2023-03-18T01:08:12;100849.28;;;13.71;100.00
50434;BME280;36361;38.954;-9.002;2023-03-18T01:09:13;100848.81;;;13.62;100.00
50434;BME280;36361;38.954;-9.002;2023-03-18T01:10:14;100848.56;;;13.64;100.00
50434;BME280;36361;38.954;-9.002;2023-03-18T01:11:16;100848.56;;;13.64;100.00
50434;BME280;36361;38.954;-9.002;2023-03-18T01:12:17;100844.19;;;13.63;100.00
50434;BME280;36361;38.954;-9.002;2023-03-18T01:13:18;100840.69;;;13.56;100.00
50434;BME280;36361;38.954;-9.002;2023-03-18T01:14:18;100844.22;;;13.45;100.00
50434;BME280;36361;38.954;-9.002;2023-03-18T01:15:21;100843.81;;;13.41;100.00
50434;BME280;36361;38.954;-9.002;2023-03-18T01:16:29;100838.44;;;13.34;100.00
50434;BME280;36361;38.954;-9.002;2023-03-18T01:17:30;100840.56;;;13.32;100.00
50434;BME280;36361;38.954;-9.002;2023-03-18T01:18:31;100832.66;;;13.43;100.00
50434;BME280;36361;38.954;-9.002;2023-03-18T01:19:34;100837.53;;;13.41;100.00
50434;BME280;36361;38.954;-9.002;2023-03-18T01:20:37;100838.28;;;13.48;100.00
50434;BME280;36361;38.954;-9.002;2023-03-18T01:21:45;100837.38;;;13.54;100.00
50434;BME280;36361;38.954;-9.002;2023-03-18T01:22:45;100836.84;;;13.45;100.00
50434;BME280;36361;38.954;-9.002;2023-03-18T01:23:47;100842.44;;;13.50;100.00
50434;BME280;36361;38.954;-9.002;2023-03-18T01:24:47;100849.69;;;13.45;100.00
50434;BME280;36361;38.954;-9.002;2023-03-18T01:25:50;100844.22;;;13.45;100.00
50434;BME280;36361;38.954;-9.002;2023-03-18T01:26:54;100842.06;;;13.47;100.00
50434;BME280;36361;38.954;-9.002;2023-03-18T01:27:56;100842.75;;;13.42;100.00
50434;BME280;36361;38.954;-9.002;2023-03-18T01:28:58;100844.06;;;13.40;100.00
50434;BME280;36361;38.954;-9.002;2023-03-18T01:29:59;100854.09;;;13.46;100.00
50434;BME280;36361;38.954;-9.002;2023-03-18T01:31:00;100850.13;;;13.42;100.00
50434;BME280;36361;38.954;-9.002;2023-03-18T01:32:01;100846.31;;;13.43;100.00
50434;BME280;36361;38.954;-9.002;2023-03-18T01:33:03;100845.78;;;13.34;100.00
50434;BME280;36361;38.954;-9.002;2023-03-18T01:34:04;100849.84;;;13.31;100.00
50434;BME280;36361;38.954;-9.002;2023-03-18T01:35:15;100852.50;;;13.20;100.00
50434;BME280;36361;38.954;-9.002;2023-03-18T01:36:20;100845.72;;;13.22;100.00
50434;BME280;36361;38.954;-9.002;2023-03-18T01:37:34;100848.84;;;13.07;100.00
50434;BME280;36361;38.954;-9.002;2023-03-18T01:38:44;100847.25;;;13.36;100.00
50434;BME280;36361;38.954;-9.002;2023-03-18T01:39:47;100845.78;;;13.16;100.00
50434;BME280;36361;38.954;-9.002;2023-03-18T01:40:54;100852.88;;;13.23;100.00
50434;BME280;36361;38.954;-9.002;2023-03-18T01:41:56;100841.41;;;13.33;100.00
50434;BME280;36361;38.954;-9.002;2023-03-18T01:43:16;100847.81;;;13.27;100.00
50434;BME280;36361;38.954;-9.002;2023-03-18T01:44:21;100847.06;;;13.13;100.00
50434;BME280;36361;38.954;-9.002;2023-03-18T01:45:27;100850.88;;;13.12;100.00
50434;BME280;36361;38.954;-9.002;2023-03-18T01:46:37;100849.28;;;13.04;100.00
50434;BME280;36361;38.954;-9.002;2023-03-18T01:47:39;100854.22;;;13.14;100.00
50434;BME280;36361;38.954;-9.002;2023-03-18T01:48:40;100851.88;;;12.99;100.00
50434;BME280;36361;38.954;-9.002;2023-03-18T01:49:47;100845.41;;;12.94;100.00
50434;BME280;36361;38.954;-9.002;2023-03-18T01:51:00;100853.38;;;12.95;100.00
50434;BME280;36361;38.954;-9.002;2023-03-18T01:52:14;100845.88;;;12.91;100.00
50434;BME280;36361;38.954;-9.002;2023-03-18T01:53:17;100856.50;;;12.56;100.00
50434;BME280;36361;38.954;-9.002;2023-03-18T01:54:18;100852.44;;;12.65;100.00
50434;BME280;36361;38.954;-9.002;2023-03-18T01:55:22;100846.69;;;12.73;100.00
50434;BME280;36361;38.954;-9.002;2023-03-18T01:56:23;100853.41;;;12.70;100.00
50434;BME280;36361;38.954;-9.002;2023-03-18T01:57:25;100847.81;;;12.84;100.00
50434;BME280;36361;38.954;-9.002;2023-03-18T01:58:31;100854.38;;;13.01;100.00
50434;BME280;36361;38.954;-9.002;2023-03-18T01:59:37;100842.06;;;13.10;100.00
50434;BME280;36361;38.954;-9.002;2023-03-18T02:00:42;100859.53;;;13.09;100.00
50434;BME280;36361;38.954;-9.002;2023-03-18T02:01:52;100847.66;;;12.97;100.00
50434;BME280;36361;38.954;-9.002;2023-03-18T02:02:54;100852.41;;;12.90;100.00
50434;BME280;36361;38.954;-9.002;2023-03-18T02:03:56;100846.00;;;12.96;100.00
50434;BME280;36361;38.954;-9.002;2023-03-18T02:05:01;100846.06;;;12.89;100.00
50434;BME280;36361;38.954;-9.002;2023-03-18T02:06:04;100852.06;;;12.79;100.00
50434;BME280;36361;38.954;-9.002;2023-03-18T02:07:05;100846.16;;;12.82;100.00
50434;BME280;36361;38.954;-9.002;2023-03-18T02:08:07;100847.38;;;12.87;100.00
50434;BME280;36361;38.954;-9.002;2023-03-18T02:09:09;100852.41;;;12.90;100.00
50434;BME280;36361;38.954;-9.002;2023-03-18T02:10:16;100853.59;;;12.75;100.00
50434;BME280;36361;38.954;-9.002;2023-03-18T02:11:18;100859.22;;;12.80;100.00
50434;BME280;36361;38.954;-9.002;2023-03-18T02:12:25;100856.44;;;12.62;100.00
50434;BME280;36361;38.954;-9.002;2023-03-18T02:13:31;100851.28;;;12.54;100.00
50434;BME280;36361;38.954;-9.002;2023-03-18T02:14:32;100854.44;;;12.51;100.00
50434;BME280;36361;38.954;-9.002;2023-03-18T02:15:36;100848.13;;;12.75;100.00
50434;BME280;36361;38.954;-9.002;2023-03-18T02:16:47;100849.13;;;12.81;100.00
50434;BME280;36361;38.954;-9.002;2023-03-18T02:18:44;100854.66;;;12.74;100.00
50434;BME280;36361;38.954;-9.002;2023-03-18T02:22:38;100846.47;;;12.93;100.00
50434;BME280;36361;38.954;-9.002;2023-03-18T02:25:30;100849.00;;;12.69;100.00
50434;BME280;36361;38.954;-9.002;2023-03-18T02:28:00;100841.91;;;12.87;100.00
50434;BME280;36361;38.954;-9.002;2023-03-18T02:29:05;100845.22;;;12.89;100.00
50434;BME280;36361;38.954;-9.002;2023-03-18T02:30:21;100839.72;;;12.95;100.00
50434;BME280;36361;38.954;-9.002;2023-03-18T02:31:25;100842.06;;;12.73;100.00
50434;BME280;36361;38.954;-9.002;2023-03-18T02:32:28;100842.81;;;12.80;100.00
50434;BME280;36361;38.954;-9.002;2023-03-18T02:33:34;100841.00;;;12.74;100.00
50434;BME280;36361;38.954;-9.002;2023-03-18T02:34:38;100839.94;;;12.75;100.00
50434;BME280;36361;38.954;-9.002;2023-03-18T02:35:43;100840.84;;;12.88;100.00
50434;BME280;36361;38.954;-9.002;2023-03-18T02:36:45;100842.31;;;12.90;100.00
50434;BME280;36361;38.954;-9.002;2023-03-18T02:37:46;100841.91;;;13.05;100.00
50434;BME280;36361;38.954;-9.002;2023-03-18T02:38:50;100839.47;;;13.15;100.00
50434;BME280;36361;38.954;-9.002;2023-03-18T02:40:18;100836.97;;;13.14;100.00
50434;BME280;36361;38.954;-9.002;2023-03-18T02:41:23;100839.13;;;13.30;100.00
50434;BME280;36361;38.954;-9.002;2023-03-18T02:42:30;100838.06;;;13.31;100.00
50434;BME280;36361;38.954;-9.002;2023-03-18T02:43:32;100841.09;;;13.23;100.00
50434;BME280;36361;38.954;-9.002;2023-03-18T02:44:42;100834.41;;;13.19;100.00
50434;BME280;36361;38.954;-9.002;2023-03-18T02:47:23;100834.41;;;13.19;100.00
50434;BME280;36361;38.954;-9.002;2023-03-18T02:48:33;100841.63;;;13.13;100.00
50434;BME280;36361;38.954;-9.002;2023-03-18T02:49:36;100842.84;;;13.17;100.00
50434;BME280;36361;38.954;-9.002;2023-03-18T02:50:37;100840.25;;;13.04;100.00
50434;BME280;36361;38.954;-9.002;2023-03-18T02:51:37;100831.47;;;13.20;100.00
50434;BME280;36361;38.954;-9.002;2023-03-18T02:52:38;100842.78;;;13.24;100.00
50434;BME280;36361;38.954;-9.002;2023-03-18T02:53:41;100832.13;;;13.34;100.00
50434;BME280;36361;38.954;-9.002;2023-03-18T02:54:43;100836.75;;;13.33;100.00
50434;BME280;36361;38.954;-9.002;2023-03-18T02:55:45;100838.00;;;13.37;100.00
50434;BME280;36361;38.954;-9.002;2023-03-18T02:56:49;100833.50;;;13.25;100.00
50434;BME280;36361;38.954;-9.002;2023-03-18T02:57:53;100835.56;;;13.29;100.00
50434;BME280;36361;38.954;-9.002;2023-03-18T02:58:54;100838.22;;;13.36;100.00
50434;BME280;36361;38.954;-9.002;2023-03-18T02:59:55;100842.66;;;13.49;100.00
50434;BME280;36361;38.954;-9.002;2023-03-18T03:00:56;100835.84;;;13.40;100.00
50434;BME280;36361;38.954;-9.002;2023-03-18T03:01:57;100834.47;;;13.49;100.00
50434;BME280;36361;38.954;-9.002;2023-03-18T03:02:58;100830.66;;;13.50;100.00
50434;BME280;36361;38.954;-9.002;2023-03-18T03:04:00;100832.63;;;13.61;100.00
50434;BME280;36361;38.954;-9.002;2023-03-18T03:05:02;100830.03;;;13.66;100.00
50434;BME280;36361;38.954;-9.002;2023-03-18T03:06:04;100837.03;;;13.44;100.00
50434;BME280;36361;38.954;-9.002;2023-03-18T03:07:05;100835.00;;;13.57;100.00
50434;BME280;36361;38.954;-9.002;2023-03-18T03:08:14;100833.56;;;13.55;100.00
50434;BME280;36361;38.954;-9.002;2023-03-18T03:09:18;100830.75;;;13.43;100.00
50434;BME280;36361;38.954;-9.002;2023-03-18T03:10:21;100821.88;;;13.48;100.00
50434;BME280;36361;38.954;-9.002;2023-03-18T03:11:22;100826.13;;;13.44;100.00
50434;BME280;36361;38.954;-9.002;2023-03-18T03:12:25;100832.66;;;13.43;100.00
50434;BME280;36361;38.954;-9.002;2023-03-18T03:13:30;100824.63;;;13.29;100.00
50434;BME280;36361;38.954;-9.002;2023-03-18T03:14:30;100828.72;;;13.38;100.00
50434;BME280;36361;38.954;-9.002;2023-03-18T03:15:35;100826.59;;;13.22;100.00
50434;BME280;36361;38.954;-9.002;2023-03-18T03:16:36;100825.22;;;13.13;100.00
50434;BME280;36361;38.954;-9.002;2023-03-18T03:17:37;100830.22;;;13.16;100.00
50434;BME280;36361;38.954;-9.002;2023-03-18T03:18:39;100820.81;;;13.12;100.00
50434;BME280;36361;38.954;-9.002;2023-03-18T03:19:39;100830.94;;;13.30;100.00
50434;BME280;36361;38.954;-9.002;2023-03-18T03:20:40;100825.53;;;13.23;100.00
50434;BME280;36361;38.954;-9.002;2023-03-18T03:21:41;100828.53;;;13.15;100.00
50434;BME280;36361;38.954;-9.002;2023-03-18T03:22:42;100826.44;;;12.99;100.00
50434;BME280;36361;38.954;-9.002;2023-03-18T03:23:46;100835.91;;;12.78;100.00
50434;BME280;36361;38.954;-9.002;2023-03-18T03:24:48;100830.66;;;12.76;100.00
50434;BME280;36361;38.954;-9.002;2023-03-18T03:25:48;100830.59;;;12.83;100.00
50434;BME280;36361;38.954;-9.002;2023-03-18T03:26:50;100830.66;;;12.76;100.00
50434;BME280;36361;38.954;-9.002;2023-03-18T03:27:51;100833.69;;;12.68;100.00
50434;BME280;36361;38.954;-9.002;2023-03-18T03:28:52;100837.63;;;12.54;100.00
50434;BME280;36361;38.954;-9.002;2023-03-18T03:29:54;100834.38;;;12.64;100.00
50434;BME280;36361;38.954;-9.002;2023-03-18T03:30:55;100838.84;;;12.58;100.00
50434;BME280;36361;38.954;-9.002;2023-03-18T03:32:03;100840.47;;;12.84;100.00
50434;BME280;36361;38.954;-9.002;2023-03-18T03:33:04;100835.84;;;12.85;100.00
50434;BME280;36361;38.954;-9.002;2023-03-18T03:34:06;100835.47;;;12.81;100.00
50434;BME280;36361;38.954;-9.002;2023-03-18T03:35:16;100839.94;;;12.75;100.00
50434;BME280;36361;38.954;-9.002;2023-03-18T03:36:18;100838.19;;;12.81;100.00
50434;BME280;36361;38.954;-9.002;2023-03-18T03:37:22;100839.22;;;12.80;100.00
50434;BME280;36361;38.954;-9.002;2023-03-18T03:38:23;100832.34;;;12.77;100.00
50434;BME280;36361;38.954;-9.002;2023-03-18T03:39:23;100837.22;;;12.94;100.00
50434;BME280;36361;38.954;-9.002;2023-03-18T03:40:26;100828.41;;;12.73;100.00
50434;BME280;36361;38.954;-9.002;2023-03-18T03:41:27;100836.31;;;12.81;100.00
50434;BME280;36361;38.954;-9.002;2023-03-18T03:42:28;100833.09;;;12.85;100.00
50434;BME280;36361;38.954;-9.002;2023-03-18T03:43:29;100832.75;;;12.81;100.00
50434;BME280;36361;38.954;-9.002;2023-03-18T03:44:29;100828.84;;;12.89;100.00
50434;BME280;36361;38.954;-9.002;2023-03-18T03:45:31;100830.53;;;12.90;100.00
50434;BME280;36361;38.954;-9.002;2023-03-18T03:46:33;100829.00;;;12.75;100.00
50434;BME280;36361;38.954;-9.002;2023-03-18T03:47:34;100833.88;;;12.92;100.00
50434;BME280;36361;38.954;-9.002;2023-03-18T03:48:37;100830.09;;;12.93;100.00
50434;BME280;36361;38.954;-9.002;2023-03-18T03:49:43;100821.28;;;12.91;100.00
50434;BME280;36361;38.954;-9.002;2023-03-18T03:50:44;100824.84;;;12.91;100.00
50434;BME280;36361;38.954;-9.002;2023-03-18T03:51:44;100824.75;;;12.79;100.00
50434;BME280;36361;38.954;-9.002;2023-03-18T03:52:47;100823.25;;;13.02;100.00
50434;BME280;36361;38.954;-9.002;2023-03-18T03:53:48;100827.06;;;13.01;100.00
50434;BME280;36361;38.954;-9.002;2023-03-18T03:54:50;100828.84;;;13.07;100.00
50434;BME280;36361;38.954;-9.002;2023-03-18T03:55:52;100821.28;;;12.91;100.00
50434;BME280;36361;38.954;-9.002;2023-03-18T03:56:54;100827.19;;;12.88;100.00
50434;BME280;36361;38.954;-9.002;2023-03-18T03:57:55;100825.75;;;13.03;100.00
50434;BME280;36361;38.954;-9.002;2023-03-18T03:58:57;100827.47;;;12.98;100.00
50434;BME280;36361;38.954;-9.002;2023-03-18T04:00:08;100828.56;;;12.97;100.00
50434;BME280;36361;38.954;-9.002;2023-03-18T04:01:19;100830.97;;;12.87;100.00
50434;BME280;36361;38.954;-9.002;2023-03-18T04:02:21;100829.63;;;12.96;100.00
50434;BME280;36361;38.954;-9.002;2023-03-18T04:03:24;100828.41;;;12.92;100.00
50434;BME280;36361;38.954;-9.002;2023-03-18T04:04:25;100828.19;;;12.93;100.00
50434;BME280;36361;38.954;-9.002;2023-03-18T04:05:26;100830.31;;;12.91;100.00
50434;BME280;36361;38.954;-9.002;2023-03-18T04:06:27;100832.03;;;13.04;100.00
50434;BME280;36361;38.954;-9.002;2023-03-18T04:07:34;100831.28;;;12.97;100.00
50434;BME280;36361;38.954;-9.002;2023-03-18T04:08:35;100834.19;;;13.02;100.00
50434;BME280;36361;38.954;-9.002;2023-03-18T04:09:36;100829.00;;;12.94;100.00
50434;BME280;36361;38.954;-9.002;2023-03-18T04:10:37;100836.75;;;12.97;100.00
50434;BME280;36361;38.954;-9.002;2023-03-18T04:11:42;100833.41;;;12.95;100.00
50434;BME280;36361;38.954;-9.002;2023-03-18T04:12:48;100835.25;;;12.82;100.00
50434;BME280;36361;38.954;-9.002;2023-03-18T04:13:49;100831.44;;;12.84;100.00
50434;BME280;36361;38.954;-9.002;2023-03-18T04:14:53;100835.38;;;12.88;100.00
50434;BME280;36361;38.954;-9.002;2023-03-18T04:15:54;100836.59;;;12.73;100.00
50434;BME280;36361;38.954;-9.002;2023-03-18T04:16:55;100834.00;;;12.78;100.00
50434;BME280;36361;38.954;-9.002;2023-03-18T04:17:57;100827.66;;;12.85;100.00
50434;BME280;36361;38.954;-9.002;2023-03-18T04:19:02;100825.56;;;12.80;100.00
50434;BME280;36361;38.954;-9.002;2023-03-18T04:20:03;100841.59;;;12.76;100.00
50434;BME280;36361;38.954;-9.002;2023-03-18T04:21:06;100835.59;;;12.86;100.00
50434;BME280;36361;38.954;-9.002;2023-03-18T04:22:19;100834.25;;;12.95;100.00
50434;BME280;36361;38.954;-9.002;2023-03-18T04:23:19;100842.97;;;13.04;100.00
50434;BME280;36361;38.954;-9.002;2023-03-18T04:24:20;100840.72;;;13.01;100.00
50434;BME280;36361;38.954;-9.002;2023-03-18T04:25:21;100839.47;;;12.78;100.00
50434;BME280;36361;38.954;-9.002;2023-03-18T04:26:25;100847.25;;;13.00;100.00
50434;BME280;36361;38.954;-9.002;2023-03-18T04:27:32;100844.66;;;13.05;100.00
50434;BME280;36361;38.954;-9.002;2023-03-18T04:28:38;100844.63;;;12.87;100.00
50434;BME280;36361;38.954;-9.002;2023-03-18T04:29:41;100842.19;;;12.78;100.00
50434;BME280;36361;38.954;-9.002;2023-03-18T04:30:42;100841.84;;;12.93;100.00
50434;BME280;36361;38.954;-9.002;2023-03-18T04:31:48;100845.88;;;13.09;100.00
50434;BME280;36361;38.954;-9.002;2023-03-18T04:32:48;100849.34;;;12.98;100.00
50434;BME280;36361;38.954;-9.002;2023-03-18T04:33:50;100851.47;;;12.96;100.00
50434;BME280;36361;38.954;-9.002;2023-03-18T04:34:51;100852.69;;;12.81;100.00
50434;BME280;36361;38.954;-9.002;2023-03-18T04:35:51;100854.13;;;12.84;100.00
50434;BME280;36361;38.954;-9.002;2023-03-18T04:36:53;100859.59;;;13.02;100.00
50434;BME280;36361;38.954;-9.002;2023-03-18T04:37:55;100860.59;;;13.08;100.00
50434;BME280;36361;38.954;-9.002;2023-03-18T04:38:57;100866.50;;;13.05;100.00
50434;BME280;36361;38.954;-9.002;2023-03-18T04:40:00;100865.88;;;12.85;100.00
50434;BME280;36361;38.954;-9.002;2023-03-18T04:41:01;100856.63;;;13.04;100.00
50434;BME280;36361;38.954;-9.002;2023-03-18T04:42:01;100856.50;;;12.99;100.00
50434;BME280;36361;38.954;-9.002;2023-03-18T04:43:03;100862.91;;;12.86;100.00
50434;BME280;36361;38.954;-9.002;2023-03-18T04:44:04;100854.25;;;12.89;100.00
50434;BME280;36361;38.954;-9.002;2023-03-18T04:45:14;100854.66;;;13.11;100.00
50434;BME280;36361;38.954;-9.002;2023-03-18T04:46:18;100857.84;;;12.90;100.00
50434;BME280;36361;38.954;-9.002;2023-03-18T04:47:23;100856.81;;;13.09;100.00
50434;BME280;36361;38.954;-9.002;2023-03-18T04:48:26;100854.75;;;13.04;100.00
50434;BME280;36361;38.954;-9.002;2023-03-18T04:49:30;100861.03;;;13.05;100.00
50434;BME280;36361;38.954;-9.002;2023-03-18T04:50:31;100859.66;;;13.14;100.00
50434;BME280;36361;38.954;-9.002;2023-03-18T04:51:32;100862.88;;;13.11;100.00
50434;BME280;36361;38.954;-9.002;2023-03-18T04:52:34;100861.03;;;13.05;100.00
50434;BME280;36361;38.954;-9.002;2023-03-18T04:53:35;100856.03;;;13.02;100.00
50434;BME280;36361;38.954;-9.002;2023-03-18T04:54:38;100850.78;;;12.82;100.00
50434;BME280;36361;38.954;-9.002;2023-03-18T04:55:39;100854.91;;;12.91;100.00
50434;BME280;36361;38.954;-9.002;2023-03-18T04:56:42;100862.69;;;12.88;100.00
50434;BME280;36361;38.954;-9.002;2023-03-18T04:57:43;100867.56;;;12.86;100.00
50434;BME280;36361;38.954;-9.002;2023-03-18T04:58:47;100862.09;;;12.86;100.00
50434;BME280;36361;38.954;-9.002;2023-03-18T04:59:53;100867.22;;;12.75;100.00
50434;BME280;36361;38.954;-9.002;2023-03-18T05:00:53;100868.97;;;12.70;100.00
50434;BME280;36361;38.954;-9.002;2023-03-18T05:01:59;100865.25;;;12.64;100.00
50434;BME280;36361;38.954;-9.002;2023-03-18T05:03:01;100858.50;;;12.67;100.00
50434;BME280;36361;38.954;-9.002;2023-03-18T05:04:02;100866.13;;;12.58;100.00
50434;BME280;36361;38.954;-9.002;2023-03-18T05:05:13;100865.84;;;12.66;100.00
50434;BME280;36361;38.954;-9.002;2023-03-18T05:06:27;100866.91;;;12.65;100.00
50434;BME280;36361;38.954;-9.002;2023-03-18T05:07:31;100869.94;;;12.57;100.00
50434;BME280;36361;38.954;-9.002;2023-03-18T05:08:38;100864.41;;;12.39;100.00
50434;BME280;36361;38.954;-9.002;2023-03-18T05:09:40;100862.16;;;12.36;100.00
50434;BME280;36361;38.954;-9.002;2023-03-18T05:10:41;100856.69;;;12.36;100.00
50434;BME280;36361;38.954;-9.002;2023-03-18T05:11:45;100864.59;;;12.44;100.00
50434;BME280;36361;38.954;-9.002;2023-03-18T05:13:00;100877.00;;;12.40;100.00
50434;BME280;36361;38.954;-9.002;2023-03-18T05:14:05;100879.34;;;12.36;100.00
50434;BME280;36361;38.954;-9.002;2023-03-18T05:15:19;100886.91;;;12.34;100.00
50434;BME280;36361;38.954;-9.002;2023-03-18T05:16:26;100882.19;;;12.48;100.00
50434;BME280;36361;38.954;-9.002;2023-03-18T05:17:27;100888.19;;;12.32;100.00
50434;BME280;36361;38.954;-9.002;2023-03-18T05:18:36;100881.94;;;12.24;100.00
50434;BME280;36361;38.954;-9.002;2023-03-18T05:19:38;100883.19;;;12.29;100.00
50434;BME280;36361;38.954;-9.002;2023-03-18T05:20:49;100885.88;;;12.35;100.00
50434;BME280;36361;38.954;-9.002;2023-03-18T05:21:53;100884.72;;;12.43;100.00
50434;BME280;36361;38.954;-9.002;2023-03-18T05:22:53;100884.72;;;12.43;100.00
50434;BME280;36361;38.954;-9.002;2023-03-18T05:24:23;100880.50;;;12.22;100.00
50434;BME280;36361;38.954;-9.002;2023-03-18T05:25:24;100891.63;;;12.20;100.00
50434;BME280;36361;38.954;-9.002;2023-03-18T05:26:25;100888.91;;;12.20;100.00
50434;BME280;36361;38.954;-9.002;2023-03-18T05:27:26;100892.97;;;12.11;100.00
50434;BME280;36361;38.954;-9.002;2023-03-18T05:28:43;100891.09;;;12.05;100.00
50434;BME280;36361;38.954;-9.002;2023-03-18T05:29:51;100889.63;;;12.09;100.00
50434;BME280;36361;38.954;-9.002;2023-03-18T05:30:59;100893.94;;;11.92;100.00
50434;BME280;36361;38.954;-9.002;2023-03-18T05:31:59;100895.94;;;12.03;100.00